Aomori Airport
RJSA : now visible

Airfield :











YOU CAN JOIN US ON...

 
LOGIN :

Register | Disclaimer

   EN    FR    IT 

 









Legend :    VFR   Marginal VFR   IFR   Intensive IFR   Very Intensive IFR
Visi :
Ceiling :
>= 8 km
>= 3000ft
5 to 8 km
1000 to 3000 ft
1500m to 5 km
500 to 1000 ft
800 to 1500m
200 to 500 ft
< 800m
< 200 ft
Symbols :   Thunderstorms  Fog  Heavy snow  Heavy precipitations  Wind > 20 kt






- Airport Elevation : 664 ft
- IATA code : AOJ


RJSA - Aomori

CURRENT METAR :
  • 230210Z 26021G33KT 0700 R24/0700VP1800U SHSN FEW002 SCT003 BKN008 M01/M03 Q1007 RMK 1ST002 3ST003 6ST008 A2974

EXPIRED METARs :
  • 230200Z 25023KT 0600 R24/0700V1400D SHSN FEW003 SCT005 BKN008 M01/M03 Q1006
  • 230150Z 26020G33KT 0700 R24/0800VP1800D SHSN FEW003 SCT005 BKN009 M01/M03 Q1006 RMK 1ST003 3ST005 6ST009 A2973
  • 230127Z 25021G34KT 5000 -SHSN FEW005 SCT010 BKN020 M00/M03 Q1006 RMK 1ST005 3ST010 6CU020 A2972
  • 230120Z 25024G36KT 4000 -SHSN FEW005 SCT010 BKN030 M00/M03 Q1006 RMK 1ST005 3ST010 6CU030 A2972
  • 230108Z 25022G36KT 1400 R24/P1800N -SHSN FEW003 SCT008 BKN015 M00/M04 Q1006 RMK 1ST003 3ST008 6CU015 A2972
  • 230100Z 25022KT 4000 -SHSN FEW004 SCT010 BKN020 M00/M04 Q1006
  • 230035Z 26022G34KT 0900 R24/1400VP1800D SHSN FEW003 SCT008 BKN010 M00/M03 Q1006 RMK 1ST003 3ST008 5ST010 A2971
  • 230019Z 26018G33KT 220V300 1600 -SHSN FEW003 SCT010 BKN015 00/M04 Q1005 RMK 1ST003 3ST010 6CU015 A2970
  • 230000Z 26020G30KT 5000 -SHSN FEW005 SCT010 BKN030 01/M05 Q1005

TAF TAF RJSA
Valid from the 23 at 00:00 until the 24 at 06:00 UTC


222305Z 2300/2406 26020KT 8000 -SHSN FEW010 BKN020 BKN030
TEMPO 2300/2302 26025G35KT 1500 -SHSN FEW005 BKN008 BKN015
TEMPO 2302/2307 26025G35KT 0700 SHSN FEW003 BKN005 BKN008
TEMPO 2307/2315 1500 -SHSN FEW005 BKN008 BKN015
TEMPO 2315/2318 3000 -SHSN



MET'MAP, your aeronautical weather chart ! - Copyright ORBIFLY December 2007 - Disclaimer

ORBIFLY MET'MAP TEAM :

Programming & Development : Alexandra Zaïnal
Concept & original design : Baudouin d'Aumeries
Assistance for programming : Marc-Olivier Méhu
Technical & hardware support : Manuel Goepfert

Contact : metmap@orbifly.com




SOURCES & CREDITS :

   NOAA       Earth
Advisory